sensor_id;sensor_type;location;lat;lon;timestamp;temperature;humidity
68801;SHT31;55784;50.734;7.086;2023-05-10T01:55:08;14.41;92.91
68801;SHT31;55784;50.734;7.086;2023-05-10T01:57:36;14.45;93.00
68801;SHT31;55784;50.734;7.086;2023-05-10T02:00:06;14.44;92.97
68801;SHT31;55784;50.734;7.086;2023-05-10T02:02:37;14.44;92.90
68801;SHT31;55784;50.734;7.086;2023-05-10T02:05:07;14.44;92.85
68801;SHT31;55784;50.734;7.086;2023-05-10T02:07:55;14.43;92.69
68801;SHT31;55784;50.734;7.086;2023-05-10T02:13:18;14.47;92.58
68801;SHT31;55784;50.734;7.086;2023-05-10T02:15:53;14.47;92.61
68801;SHT31;55784;50.734;7.086;2023-05-10T02:22:24;14.41;92.58
68801;SHT31;55784;50.734;7.086;2023-05-10T02:25:18;14.38;92.75
68801;SHT31;55784;50.734;7.086;2023-05-10T02:27:48;14.43;92.58
68801;SHT31;55784;50.734;7.086;2023-05-10T02:30:34;14.38;92.68
68801;SHT31;55784;50.734;7.086;2023-05-10T02:34:10;14.30;92.61
68801;SHT31;55784;50.734;7.086;2023-05-10T02:37:35;14.36;92.57
68801;SHT31;55784;50.734;7.086;2023-05-10T02:43:22;14.33;92.82
68801;SHT31;55784;50.734;7.086;2023-05-10T02:46:11;14.27;92.85
68801;SHT31;55784;50.734;7.086;2023-05-10T02:49:17;14.26;93.03
68801;SHT31;55784;50.734;7.086;2023-05-10T02:52:21;14.31;92.89
68801;SHT31;55784;50.734;7.086;2023-05-10T02:54:57;14.31;92.95
68801;SHT31;55784;50.734;7.086;2023-05-10T02:57:34;14.33;93.01
68801;SHT31;55784;50.734;7.086;2023-05-10T03:04:09;14.23;93.13
68801;SHT31;55784;50.734;7.086;2023-05-10T03:25:35;14.33;93.28
68801;SHT31;55784;50.734;7.086;2023-05-10T03:28:36;14.24;93.57
68801;SHT31;55784;50.734;7.086;2023-05-10T03:31:21;14.26;93.40
68801;SHT31;55784;50.734;7.086;2023-05-10T03:33:53;14.23;93.45
68801;SHT31;55784;50.734;7.086;2023-05-10T03:37:00;14.24;93.61
68801;SHT31;55784;50.734;7.086;2023-05-10T03:39:43;14.30;93.62
68801;SHT31;55784;50.734;7.086;2023-05-10T03:42:22;14.34;93.52
68801;SHT31;55784;50.734;7.086;2023-05-10T03:48:57;14.34;93.36
68801;SHT31;55784;50.734;7.086;2023-05-10T03:57:43;14.23;93.58
68801;SHT31;55784;50.734;7.086;2023-05-10T04:04:01;14.06;94.16
68801;SHT31;55784;50.734;7.086;2023-05-10T04:09:42;14.03;94.72
68801;SHT31;55784;50.734;7.086;2023-05-10T04:16:08;14.17;94.64
68801;SHT31;55784;50.734;7.086;2023-05-10T04:21:45;14.14;94.53
68801;SHT31;55784;50.734;7.086;2023-05-10T04:24:42;14.13;94.68
68801;SHT31;55784;50.734;7.086;2023-05-10T04:35:01;14.13;95.25
68801;SHT31;55784;50.734;7.086;2023-05-10T04:48:41;14.19;95.26
68801;SHT31;55784;50.734;7.086;2023-05-10T05:05:50;14.41;94.45
68801;SHT31;55784;50.734;7.086;2023-05-10T05:08:18;14.47;94.35
68801;SHT31;55784;50.734;7.086;2023-05-10T05:10:44;14.47;94.18
68801;SHT31;55784;50.734;7.086;2023-05-10T05:13:22;14.51;94.02
68801;SHT31;55784;50.734;7.086;2023-05-10T05:15:50;14.60;93.80
68801;SHT31;55784;50.734;7.086;2023-05-10T05:18:15;14.70;93.62
68801;SHT31;55784;50.734;7.086;2023-05-10T05:20:44;14.68;93.42
68801;SHT31;55784;50.734;7.086;2023-05-10T05:23:10;14.64;93.30
68801;SHT31;55784;50.734;7.086;2023-05-10T05:25:42;14.77;93.30
68801;SHT31;55784;50.734;7.086;2023-05-10T05:30:35;14.92;92.92
68801;SHT31;55784;50.734;7.086;2023-05-10T05:33:00;14.87;93.09
68801;SHT31;55784;50.734;7.086;2023-05-10T05:35:25;14.89;92.94
68801;SHT31;55784;50.734;7.086;2023-05-10T05:37:51;14.96;92.76
68801;SHT31;55784;50.734;7.086;2023-05-10T05:40:16;15.09;92.43
68801;SHT31;55784;50.734;7.086;2023-05-10T05:42:41;15.15;92.11
68801;SHT31;55784;50.734;7.086;2023-05-10T05:45:07;15.25;92.13
68801;SHT31;55784;50.734;7.086;2023-05-10T05:47:34;15.26;91.21
68801;SHT31;55784;50.734;7.086;2023-05-10T05:49:59;15.32;91.23
68801;SHT31;55784;50.734;7.086;2023-05-10T05:52:24;15.45;91.09
68801;SHT31;55784;50.734;7.086;2023-05-10T05:54:50;15.70;90.91
68801;SHT31;55784;50.734;7.086;2023-05-10T05:57:15;15.85;90.06
68801;SHT31;55784;50.734;7.086;2023-05-10T05:59:40;15.91;89.11
68801;SHT31;55784;50.734;7.086;2023-05-10T06:02:09;15.97;88.44
68801;SHT31;55784;50.734;7.086;2023-05-10T06:04:35;15.96;87.57
68801;SHT31;55784;50.734;7.086;2023-05-10T06:07:00;15.87;88.20
68801;SHT31;55784;50.734;7.086;2023-05-10T06:09:25;15.97;88.06
68801;SHT31;55784;50.734;7.086;2023-05-10T06:11:50;15.87;87.74
68801;SHT31;55784;50.734;7.086;2023-05-10T06:14:16;15.69;88.03
68801;SHT31;55784;50.734;7.086;2023-05-10T06:16:41;15.56;87.92
68801;SHT31;55784;50.734;7.086;2023-05-10T06:19:06;15.56;88.64
68801;SHT31;55784;50.734;7.086;2023-05-10T06:21:32;15.52;88.21
68801;SHT31;55784;50.734;7.086;2023-05-10T06:23:57;15.62;87.23
68801;SHT31;55784;50.734;7.086;2023-05-10T06:26:22;15.57;85.94
68801;SHT31;55784;50.734;7.086;2023-05-10T06:28:48;15.50;86.00
68801;SHT31;55784;50.734;7.086;2023-05-10T06:31:13;15.46;85.66
68801;SHT31;55784;50.734;7.086;2023-05-10T06:33:38;15.56;86.22
68801;SHT31;55784;50.734;7.086;2023-05-10T06:36:04;15.60;86.05
68801;SHT31;55784;50.734;7.086;2023-05-10T06:38:29;15.56;85.13
68801;SHT31;55784;50.734;7.086;2023-05-10T06:40:55;15.66;86.00
68801;SHT31;55784;50.734;7.086;2023-05-10T06:43:20;15.62;85.05
68801;SHT31;55784;50.734;7.086;2023-05-10T06:45:50;15.67;85.35
68801;SHT31;55784;50.734;7.086;2023-05-10T06:48:15;15.71;85.72
68801;SHT31;55784;50.734;7.086;2023-05-10T06:50:40;15.79;85.13
68801;SHT31;55784;50.734;7.086;2023-05-10T06:53:06;15.82;85.13
68801;SHT31;55784;50.734;7.086;2023-05-10T06:55:31;15.71;84.65
68801;SHT31;55784;50.734;7.086;2023-05-10T06:57:56;15.73;84.05
68801;SHT31;55784;50.734;7.086;2023-05-10T07:00:22;15.67;84.46
68801;SHT31;55784;50.734;7.086;2023-05-10T07:02:47;15.79;84.86
68801;SHT31;55784;50.734;7.086;2023-05-10T07:05:13;15.76;84.89
68801;SHT31;55784;50.734;7.086;2023-05-10T07:07:39;15.66;84.58
68801;SHT31;55784;50.734;7.086;2023-05-10T07:10:05;15.74;84.86
68801;SHT31;55784;50.734;7.086;2023-05-10T07:12:30;15.77;84.88
68801;SHT31;55784;50.734;7.086;2023-05-10T07:14:55;15.82;85.04
68801;SHT31;55784;50.734;7.086;2023-05-10T07:17:21;15.91;84.84
68801;SHT31;55784;50.734;7.086;2023-05-10T07:19:46;16.10;84.81
68801;SHT31;55784;50.734;7.086;2023-05-10T07:22:11;16.22;85.15
68801;SHT31;55784;50.734;7.086;2023-05-10T07:24:37;16.28;85.28
68801;SHT31;55784;50.734;7.086;2023-05-10T07:27:02;16.21;85.33
68801;SHT31;55784;50.734;7.086;2023-05-10T07:29:27;16.11;85.72
68801;SHT31;55784;50.734;7.086;2023-05-10T07:31:53;16.20;85.89
68801;SHT31;55784;50.734;7.086;2023-05-10T07:34:19;16.27;86.13
68801;SHT31;55784;50.734;7.086;2023-05-10T07:36:44;16.30;85.52
68801;SHT31;55784;50.734;7.086;2023-05-10T07:39:09;16.17;85.42
68801;SHT31;55784;50.734;7.086;2023-05-10T07:41:35;15.91;84.37
68801;SHT31;55784;50.734;7.086;2023-05-10T07:44:02;15.97;84.38
68801;SHT31;55784;50.734;7.086;2023-05-10T07:46:28;15.97;84.75
68801;SHT31;55784;50.734;7.086;2023-05-10T07:48:54;15.96;84.52
68801;SHT31;55784;50.734;7.086;2023-05-10T07:51:19;16.01;85.11
68801;SHT31;55784;50.734;7.086;2023-05-10T07:53:44;16.03;85.04
68801;SHT31;55784;50.734;7.086;2023-05-10T07:56:21;16.10;84.63
68801;SHT31;55784;50.734;7.086;2023-05-10T07:58:46;16.16;84.63
68801;SHT31;55784;50.734;7.086;2023-05-10T08:01:12;16.25;84.38
68801;SHT31;55784;50.734;7.086;2023-05-10T08:03:37;16.44;84.67
68801;SHT31;55784;50.734;7.086;2023-05-10T08:06:02;16.57;84.02
68801;SHT31;55784;50.734;7.086;2023-05-10T08:08:28;16.58;83.70
68801;SHT31;55784;50.734;7.086;2023-05-10T08:10:53;16.68;83.67
68801;SHT31;55784;50.734;7.086;2023-05-10T08:13:19;16.79;83.03
68801;SHT31;55784;50.734;7.086;2023-05-10T08:15:44;16.86;82.62
68801;SHT31;55784;50.734;7.086;2023-05-10T08:18:09;16.93;82.47
68801;SHT31;55784;50.734;7.086;2023-05-10T08:20:35;17.09;82.70
68801;SHT31;55784;50.734;7.086;2023-05-10T08:23:00;17.33;81.86
68801;SHT31;55784;50.734;7.086;2023-05-10T08:25:25;17.53;80.80
68801;SHT31;55784;50.734;7.086;2023-05-10T08:27:51;17.70;79.49
68801;SHT31;55784;50.734;7.086;2023-05-10T08:30:16;17.90;78.76
68801;SHT31;55784;50.734;7.086;2023-05-10T08:32:42;18.02;79.17
68801;SHT31;55784;50.734;7.086;2023-05-10T08:35:07;18.04;78.86
68801;SHT31;55784;50.734;7.086;2023-05-10T08:37:33;17.73;78.99
68801;SHT31;55784;50.734;7.086;2023-05-10T08:39:58;17.32;79.28
68801;SHT31;55784;50.734;7.086;2023-05-10T08:42:25;17.09;80.41
68801;SHT31;55784;50.734;7.086;2023-05-10T08:44:53;17.18;80.08
68801;SHT31;55784;50.734;7.086;2023-05-10T08:47:20;17.05;80.55
68801;SHT31;55784;50.734;7.086;2023-05-10T08:49:47;16.88;81.06
68801;SHT31;55784;50.734;7.086;2023-05-10T08:52:15;16.91;81.46
68801;SHT31;55784;50.734;7.086;2023-05-10T08:54:42;16.59;83.28
68801;SHT31;55784;50.734;7.086;2023-05-10T08:57:07;16.40;83.65
68801;SHT31;55784;50.734;7.086;2023-05-10T08:59:33;16.13;84.80
68801;SHT31;55784;50.734;7.086;2023-05-10T09:01:59;15.87;85.25
68801;SHT31;55784;50.734;7.086;2023-05-10T09:04:27;16.00;85.03
68801;SHT31;55784;50.734;7.086;2023-05-10T09:06:53;16.11;84.66
68801;SHT31;55784;50.734;7.086;2023-05-10T09:09:19;16.24;84.10
68801;SHT31;55784;50.734;7.086;2023-05-10T09:11:45;16.21;84.12
68801;SHT31;55784;50.734;7.086;2023-05-10T09:14:12;15.82;85.02
68801;SHT31;55784;50.734;7.086;2023-05-10T09:16:38;15.89;85.61
68801;SHT31;55784;50.734;7.086;2023-05-10T09:19:03;16.13;84.85
68801;SHT31;55784;50.734;7.086;2023-05-10T09:21:29;16.30;84.24
68801;SHT31;55784;50.734;7.086;2023-05-10T09:23:55;16.34;83.56
68801;SHT31;55784;50.734;7.086;2023-05-10T09:26:24;16.32;84.22
68801;SHT31;55784;50.734;7.086;2023-05-10T09:28:57;16.35;83.16
68801;SHT31;55784;50.734;7.086;2023-05-10T09:31:22;16.35;83.52
68801;SHT31;55784;50.734;7.086;2023-05-10T09:33:50;16.91;83.26
68801;SHT31;55784;50.734;7.086;2023-05-10T09:36:16;17.18;82.11
68801;SHT31;55784;50.734;7.086;2023-05-10T09:38:49;17.32;81.45
68801;SHT31;55784;50.734;7.086;2023-05-10T09:41:24;17.39;81.03
68801;SHT31;55784;50.734;7.086;2023-05-10T09:43:50;17.39;81.50
68801;SHT31;55784;50.734;7.086;2023-05-10T09:46:20;17.46;81.10
68801;SHT31;55784;50.734;7.086;2023-05-10T09:48:46;17.57;81.43
68801;SHT31;55784;50.734;7.086;2023-05-10T09:51:24;17.62;80.31
68801;SHT31;55784;50.734;7.086;2023-05-10T09:54:15;17.59;80.51
68801;SHT31;55784;50.734;7.086;2023-05-10T09:56:41;17.60;80.09
68801;SHT31;55784;50.734;7.086;2023-05-10T09:59:09;17.59;81.30
68801;SHT31;55784;50.734;7.086;2023-05-10T10:01:35;17.75;78.54
68801;SHT31;55784;50.734;7.086;2023-05-10T10:04:03;17.83;79.71
68801;SHT31;55784;50.734;7.086;2023-05-10T10:06:29;18.12;79.46
68801;SHT31;55784;50.734;7.086;2023-05-10T10:08:55;18.08;77.21
68801;SHT31;55784;50.734;7.086;2023-05-10T10:11:21;17.88;78.10
68801;SHT31;55784;50.734;7.086;2023-05-10T10:13:48;17.57;78.02
68801;SHT31;55784;50.734;7.086;2023-05-10T10:16:14;17.37;78.07
68801;SHT31;55784;50.734;7.086;2023-05-10T10:18:40;17.40;78.63
68801;SHT31;55784;50.734;7.086;2023-05-10T10:21:07;17.54;78.16
68801;SHT31;55784;50.734;7.086;2023-05-10T10:23:34;17.80;78.77
68801;SHT31;55784;50.734;7.086;2023-05-10T10:26:04;17.62;78.30
68801;SHT31;55784;50.734;7.086;2023-05-10T10:33:59;16.69;79.85
68801;SHT31;55784;50.734;7.086;2023-05-10T10:36:25;16.73;80.14
68801;SHT31;55784;50.734;7.086;2023-05-10T10:39:00;16.73;80.33
68801;SHT31;55784;50.734;7.086;2023-05-10T10:41:34;17.01;79.35
68801;SHT31;55784;50.734;7.086;2023-05-10T10:57:25;17.40;75.75
68801;SHT31;55784;50.734;7.086;2023-05-10T10:59:54;17.18;76.82
68801;SHT31;55784;50.734;7.086;2023-05-10T11:07:55;18.51;73.91
68801;SHT31;55784;50.734;7.086;2023-05-10T11:10:21;19.04;71.64
68801;SHT31;55784;50.734;7.086;2023-05-10T11:12:52;18.76;69.43
68801;SHT31;55784;50.734;7.086;2023-05-10T11:15:18;18.80;70.92
68801;SHT31;55784;50.734;7.086;2023-05-10T11:17:44;18.93;69.59
68801;SHT31;55784;50.734;7.086;2023-05-10T11:20:14;18.51;70.35
68801;SHT31;55784;50.734;7.086;2023-05-10T11:22:49;18.41;70.72
68801;SHT31;55784;50.734;7.086;2023-05-10T11:25:16;18.28;70.00
68801;SHT31;55784;50.734;7.086;2023-05-10T11:27:41;18.26;70.14
68801;SHT31;55784;50.734;7.086;2023-05-10T11:30:38;18.49;69.58
68801;SHT31;55784;50.734;7.086;2023-05-10T11:33:23;18.60;68.02
68801;SHT31;55784;50.734;7.086;2023-05-10T11:36:03;19.21;68.66
68801;SHT31;55784;50.734;7.086;2023-05-10T11:38:35;19.48;66.50
68801;SHT31;55784;50.734;7.086;2023-05-10T11:41:03;19.50;66.84
68801;SHT31;55784;50.734;7.086;2023-05-10T11:43:28;19.19;65.90
68801;SHT31;55784;50.734;7.086;2023-05-10T11:45:58;19.20;66.73
68801;SHT31;55784;50.734;7.086;2023-05-10T11:48:24;19.14;64.65
68801;SHT31;55784;50.734;7.086;2023-05-10T11:50:52;19.62;64.63
68801;SHT31;55784;50.734;7.086;2023-05-10T11:53:22;19.61;65.38
68801;SHT31;55784;50.734;7.086;2023-05-10T11:55:47;19.50;64.94
68801;SHT31;55784;50.734;7.086;2023-05-10T11:58:13;19.20;65.83
68801;SHT31;55784;50.734;7.086;2023-05-10T12:00:39;19.41;66.78
68801;SHT31;55784;50.734;7.086;2023-05-10T12:03:05;19.19;65.82
68801;SHT31;55784;50.734;7.086;2023-05-10T12:05:32;19.35;65.64
68801;SHT31;55784;50.734;7.086;2023-05-10T12:08:14;19.57;64.52
68801;SHT31;55784;50.734;7.086;2023-05-10T12:10:43;19.16;65.78
68801;SHT31;55784;50.734;7.086;2023-05-10T12:13:22;18.77;67.02
68801;SHT31;55784;50.734;7.086;2023-05-10T12:15:51;18.89;68.31
68801;SHT31;55784;50.734;7.086;2023-05-10T12:18:22;19.02;67.35
68801;SHT31;55784;50.734;7.086;2023-05-10T12:20:52;18.92;66.88
68801;SHT31;55784;50.734;7.086;2023-05-10T12:23:20;19.20;65.85
68801;SHT31;55784;50.734;7.086;2023-05-10T12:25:46;19.13;65.89
68801;SHT31;55784;50.734;7.086;2023-05-10T12:28:11;19.16;66.61
68801;SHT31;55784;50.734;7.086;2023-05-10T12:30:37;19.35;65.41
68801;SHT31;55784;50.734;7.086;2023-05-10T12:33:10;19.28;66.43
68801;SHT31;55784;50.734;7.086;2023-05-10T12:35:47;18.96;66.19
68801;SHT31;55784;50.734;7.086;2023-05-10T12:40:51;18.85;64.79
68801;SHT31;55784;50.734;7.086;2023-05-10T12:43:17;18.59;65.37
68801;SHT31;55784;50.734;7.086;2023-05-10T12:45:42;18.34;67.15
68801;SHT31;55784;50.734;7.086;2023-05-10T12:48:07;18.22;68.29
68801;SHT31;55784;50.734;7.086;2023-05-10T12:50:33;18.02;71.08
68801;SHT31;55784;50.734;7.086;2023-05-10T12:53:01;17.83;71.23
68801;SHT31;55784;50.734;7.086;2023-05-10T12:55:26;17.74;72.76
68801;SHT31;55784;50.734;7.086;2023-05-10T12:57:51;17.64;72.99
68801;SHT31;55784;50.734;7.086;2023-05-10T13:00:17;17.57;73.58
68801;SHT31;55784;50.734;7.086;2023-05-10T13:02:42;17.67;73.97
68801;SHT31;55784;50.734;7.086;2023-05-10T13:05:08;17.85;73.57
68801;SHT31;55784;50.734;7.086;2023-05-10T13:07:54;17.94;72.29
68801;SHT31;55784;50.734;7.086;2023-05-10T13:10:26;18.41;70.90
68801;SHT31;55784;50.734;7.086;2023-05-10T13:13:06;18.80;69.19
68801;SHT31;55784;50.734;7.086;2023-05-10T13:15:40;18.70;66.64
68801;SHT31;55784;50.734;7.086;2023-05-10T13:23:35;19.43;66.45
68801;SHT31;55784;50.734;7.086;2023-05-10T13:26:00;20.16;67.06
68801;SHT31;55784;50.734;7.086;2023-05-10T13:28:26;19.95;66.20
68801;SHT31;55784;50.734;7.086;2023-05-10T13:30:51;20.04;64.76
68801;SHT31;55784;50.734;7.086;2023-05-10T13:33:17;19.41;65.63
68801;SHT31;55784;50.734;7.086;2023-05-10T13:35:45;19.07;65.55
68801;SHT31;55784;50.734;7.086;2023-05-10T13:38:12;18.89;65.03
68801;SHT31;55784;50.734;7.086;2023-05-10T13:40:37;18.87;66.63
68801;SHT31;55784;50.734;7.086;2023-05-10T13:43:03;18.52;66.79
68801;SHT31;55784;50.734;7.086;2023-05-10T13:45:31;18.14;67.47
68801;SHT31;55784;50.734;7.086;2023-05-10T13:47:57;17.78;68.85
68801;SHT31;55784;50.734;7.086;2023-05-10T13:51:18;17.75;68.84
68801;SHT31;55784;50.734;7.086;2023-05-10T13:54:16;17.81;68.83
68801;SHT31;55784;50.734;7.086;2023-05-10T13:56:55;17.51;70.01
68801;SHT31;55784;50.734;7.086;2023-05-10T14:20:20;16.95;73.97
68801;SHT31;55784;50.734;7.086;2023-05-10T14:22:45;16.99;73.35
68801;SHT31;55784;50.734;7.086;2023-05-10T14:25:11;17.03;73.79
68801;SHT31;55784;50.734;7.086;2023-05-10T14:27:38;17.03;75.37
68801;SHT31;55784;50.734;7.086;2023-05-10T14:37:43;17.09;75.48
68801;SHT31;55784;50.734;7.086;2023-05-10T14:40:34;16.92;75.97
68801;SHT31;55784;50.734;7.086;2023-05-10T14:43:03;17.06;75.80
68801;SHT31;55784;50.734;7.086;2023-05-10T14:45:34;17.36;78.58
68801;SHT31;55784;50.734;7.086;2023-05-10T14:48:00;17.75;80.37
68801;SHT31;55784;50.734;7.086;2023-05-10T14:50:25;18.26;80.55
68801;SHT31;55784;50.734;7.086;2023-05-10T14:52:51;18.80;80.25
68801;SHT31;55784;50.734;7.086;2023-05-10T14:55:16;19.23;79.52
68801;SHT31;55784;50.734;7.086;2023-05-10T14:57:45;19.68;78.23
68801;SHT31;55784;50.734;7.086;2023-05-10T15:03:53;20.09;75.72
68801;SHT31;55784;50.734;7.086;2023-05-10T15:06:42;20.05;76.08
68801;SHT31;55784;50.734;7.086;2023-05-10T15:09:10;19.88;76.52
68801;SHT31;55784;50.734;7.086;2023-05-10T15:11:42;19.51;77.00
68801;SHT31;55784;50.734;7.086;2023-05-10T15:14:07;19.35;77.63
68801;SHT31;55784;50.734;7.086;2023-05-10T15:16:35;19.21;78.44
68801;SHT31;55784;50.734;7.086;2023-05-10T15:19:17;18.97;78.91
68801;SHT31;55784;50.734;7.086;2023-05-10T15:21:49;18.97;79.41
68801;SHT31;55784;50.734;7.086;2023-05-10T15:24:17;18.85;80.04
68801;SHT31;55784;50.734;7.086;2023-05-10T15:26:55;18.73;79.96
68801;SHT31;55784;50.734;7.086;2023-05-10T15:29:21;18.65;80.45
68801;SHT31;55784;50.734;7.086;2023-05-10T15:31:52;18.52;80.02
68801;SHT31;55784;50.734;7.086;2023-05-10T15:37:57;18.06;82.72
68801;SHT31;55784;50.734;7.086;2023-05-10T15:40:25;17.55;84.82
68801;SHT31;55784;50.734;7.086;2023-05-10T15:42:51;17.43;86.85
68801;SHT31;55784;50.734;7.086;2023-05-10T15:45:20;17.27;87.93
68801;SHT31;55784;50.734;7.086;2023-05-10T15:47:48;17.09;87.31
68801;SHT31;55784;50.734;7.086;2023-05-10T15:50:15;17.18;87.18
68801;SHT31;55784;50.734;7.086;2023-05-10T15:52:43;17.27;86.64
68801;SHT31;55784;50.734;7.086;2023-05-10T15:55:09;17.44;86.28
68801;SHT31;55784;50.734;7.086;2023-05-10T15:57:38;17.64;85.10
68801;SHT31;55784;50.734;7.086;2023-05-10T16:00:05;17.84;83.77
68801;SHT31;55784;50.734;7.086;2023-05-10T16:02:30;18.11;83.51
68801;SHT31;55784;50.734;7.086;2023-05-10T16:04:56;18.12;82.24
68801;SHT31;55784;50.734;7.086;2023-05-10T16:07:21;18.36;80.99
68801;SHT31;55784;50.734;7.086;2023-05-10T16:09:46;18.56;79.91
68801;SHT31;55784;50.734;7.086;2023-05-10T16:12:13;18.69;80.37
68801;SHT31;55784;50.734;7.086;2023-05-10T16:14:39;18.48;79.85
68801;SHT31;55784;50.734;7.086;2023-05-10T16:17:04;18.73;79.71
68801;SHT31;55784;50.734;7.086;2023-05-10T16:19:30;18.90;79.12
68801;SHT31;55784;50.734;7.086;2023-05-10T16:21:55;18.92;78.77
68801;SHT31;55784;50.734;7.086;2023-05-10T16:24:21;18.90;79.41
68801;SHT31;55784;50.734;7.086;2023-05-10T16:26:46;18.69;79.05
68801;SHT31;55784;50.734;7.086;2023-05-10T16:29:12;18.72;78.90
68801;SHT31;55784;50.734;7.086;2023-05-10T16:31:37;18.75;78.83
68801;SHT31;55784;50.734;7.086;2023-05-10T16:34:03;18.70;78.21
68801;SHT31;55784;50.734;7.086;2023-05-10T16:36:28;18.76;78.51
68801;SHT31;55784;50.734;7.086;2023-05-10T16:38:54;18.76;76.81
68801;SHT31;55784;50.734;7.086;2023-05-10T16:41:19;18.99;76.88
68801;SHT31;55784;50.734;7.086;2023-05-10T16:43:45;19.14;76.58
68801;SHT31;55784;50.734;7.086;2023-05-10T16:46:11;19.26;75.92
68801;SHT31;55784;50.734;7.086;2023-05-10T16:48:37;19.34;76.42
68801;SHT31;55784;50.734;7.086;2023-05-10T16:51:03;19.44;76.92
68801;SHT31;55784;50.734;7.086;2023-05-10T16:53:31;19.46;76.12
68801;SHT31;55784;50.734;7.086;2023-05-10T16:55:56;19.57;76.34
68801;SHT31;55784;50.734;7.086;2023-05-10T16:58:28;19.47;75.20
68801;SHT31;55784;50.734;7.086;2023-05-10T17:00:53;19.43;76.03
68801;SHT31;55784;50.734;7.086;2023-05-10T17:03:19;19.41;76.65
68801;SHT31;55784;50.734;7.086;2023-05-10T17:05:44;19.26;76.27
68801;SHT31;55784;50.734;7.086;2023-05-10T17:08:10;19.20;77.15
68801;SHT31;55784;50.734;7.086;2023-05-10T17:10:39;19.14;76.41
68801;SHT31;55784;50.734;7.086;2023-05-10T17:13:05;18.97;76.53
68801;SHT31;55784;50.734;7.086;2023-05-10T17:15:31;18.82;77.64
68801;SHT31;55784;50.734;7.086;2023-05-10T17:17:56;18.66;78.25
68801;SHT31;55784;50.734;7.086;2023-05-10T17:20:22;18.56;78.54
68801;SHT31;55784;50.734;7.086;2023-05-10T17:22:47;18.48;78.87
68801;SHT31;55784;50.734;7.086;2023-05-10T17:25:13;18.35;78.88
68801;SHT31;55784;50.734;7.086;2023-05-10T17:27:39;18.21;78.99
68801;SHT31;55784;50.734;7.086;2023-05-10T17:30:05;18.12;79.89
68801;SHT31;55784;50.734;7.086;2023-05-10T17:32:30;18.08;79.56
68801;SHT31;55784;50.734;7.086;2023-05-10T17:34:55;18.06;79.08
68801;SHT31;55784;50.734;7.086;2023-05-10T17:37:21;18.04;79.92
68801;SHT31;55784;50.734;7.086;2023-05-10T17:39:47;18.00;80.22
68801;SHT31;55784;50.734;7.086;2023-05-10T17:42:12;18.00;80.07
68801;SHT31;55784;50.734;7.086;2023-05-10T17:44:39;17.87;80.34
68801;SHT31;55784;50.734;7.086;2023-05-10T17:47:04;17.75;79.37
68801;SHT31;55784;50.734;7.086;2023-05-10T17:49:30;17.84;80.09
68801;SHT31;55784;50.734;7.086;2023-05-10T17:51:55;17.84;80.00
68801;SHT31;55784;50.734;7.086;2023-05-10T17:54:21;17.84;78.98
68801;SHT31;55784;50.734;7.086;2023-05-10T17:56:46;17.84;79.87
68801;SHT31;55784;50.734;7.086;2023-05-10T17:59:11;17.83;79.56
68801;SHT31;55784;50.734;7.086;2023-05-10T18:01:37;17.78;80.15
68801;SHT31;55784;50.734;7.086;2023-05-10T18:04:02;17.74;79.38
68801;SHT31;55784;50.734;7.086;2023-05-10T18:06:28;17.73;78.93
68801;SHT31;55784;50.734;7.086;2023-05-10T18:08:53;17.78;78.87
68801;SHT31;55784;50.734;7.086;2023-05-10T18:11:20;17.74;79.82
68801;SHT31;55784;50.734;7.086;2023-05-10T18:13:46;17.71;79.80
68801;SHT31;55784;50.734;7.086;2023-05-10T18:16:11;17.66;79.11
68801;SHT31;55784;50.734;7.086;2023-05-10T18:18:37;17.59;79.03
68801;SHT31;55784;50.734;7.086;2023-05-10T18:21:03;17.51;79.95
68801;SHT31;55784;50.734;7.086;2023-05-10T18:23:31;17.37;80.49
68801;SHT31;55784;50.734;7.086;2023-05-10T18:25:56;17.32;80.96
68801;SHT31;55784;50.734;7.086;2023-05-10T18:28:24;17.23;81.50
68801;SHT31;55784;50.734;7.086;2023-05-10T18:30:50;17.06;81.30
68801;SHT31;55784;50.734;7.086;2023-05-10T18:33:15;16.99;81.17
68801;SHT31;55784;50.734;7.086;2023-05-10T18:35:40;16.89;81.80
68801;SHT31;55784;50.734;7.086;2023-05-10T18:38:06;16.82;82.45
68801;SHT31;55784;50.734;7.086;2023-05-10T18:40:33;16.75;82.88
68801;SHT31;55784;50.734;7.086;2023-05-10T18:42:59;16.67;83.00
68801;SHT31;55784;50.734;7.086;2023-05-10T18:45:24;16.57;83.02
68801;SHT31;55784;50.734;7.086;2023-05-10T18:47:49;16.44;83.46
68801;SHT31;55784;50.734;7.086;2023-05-10T18:50:15;16.34;84.01
68801;SHT31;55784;50.734;7.086;2023-05-10T18:52:41;16.31;84.50
68801;SHT31;55784;50.734;7.086;2023-05-10T18:55:07;16.28;84.35
68801;SHT31;55784;50.734;7.086;2023-05-10T18:57:33;16.20;84.04
68801;SHT31;55784;50.734;7.086;2023-05-10T19:00:08;16.13;84.06
68801;SHT31;55784;50.734;7.086;2023-05-10T19:02:35;15.98;84.14
68801;SHT31;55784;50.734;7.086;2023-05-10T19:05:01;15.94;84.99
68801;SHT31;55784;50.734;7.086;2023-05-10T19:07:26;15.93;85.07
68801;SHT31;55784;50.734;7.086;2023-05-10T19:09:51;15.86;85.59
68801;SHT31;55784;50.734;7.086;2023-05-10T19:12:17;15.80;85.44
68801;SHT31;55784;50.734;7.086;2023-05-10T19:14:42;15.66;85.63
68801;SHT31;55784;50.734;7.086;2023-05-10T19:17:07;15.55;85.81
68801;SHT31;55784;50.734;7.086;2023-05-10T19:19:33;15.49;85.96
68801;SHT31;55784;50.734;7.086;2023-05-10T19:21:58;15.46;86.23
68801;SHT31;55784;50.734;7.086;2023-05-10T19:24:23;15.43;86.78
68801;SHT31;55784;50.734;7.086;2023-05-10T19:26:49;15.38;86.74
68801;SHT31;55784;50.734;7.086;2023-05-10T19:29:15;15.36;86.83
68801;SHT31;55784;50.734;7.086;2023-05-10T19:31:40;15.29;87.28
68801;SHT31;55784;50.734;7.086;2023-05-10T19:34:06;15.26;87.56
68801;SHT31;55784;50.734;7.086;2023-05-10T19:36:31;15.29;87.95
68801;SHT31;55784;50.734;7.086;2023-05-10T19:38:56;15.24;87.83
68801;SHT31;55784;50.734;7.086;2023-05-10T19:41:22;15.25;87.83
68801;SHT31;55784;50.734;7.086;2023-05-10T19:43:47;15.25;87.42
68801;SHT31;55784;50.734;7.086;2023-05-10T19:46:12;15.22;86.74
68801;SHT31;55784;50.734;7.086;2023-05-10T19:48:37;15.26;85.85
68801;SHT31;55784;50.734;7.086;2023-05-10T19:51:04;15.14;85.29
68801;SHT31;55784;50.734;7.086;2023-05-10T19:53:31;14.91;85.98
68801;SHT31;55784;50.734;7.086;2023-05-10T19:56:02;14.84;87.43
68801;SHT31;55784;50.734;7.086;2023-05-10T19:58:29;14.74;87.44
68801;SHT31;55784;50.734;7.086;2023-05-10T20:00:54;14.59;87.95
68801;SHT31;55784;50.734;7.086;2023-05-10T20:03:20;14.63;87.72
68801;SHT31;55784;50.734;7.086;2023-05-10T20:05:45;14.70;87.59
68801;SHT31;55784;50.734;7.086;2023-05-10T20:08:10;14.67;87.89
68801;SHT31;55784;50.734;7.086;2023-05-10T20:10:36;14.70;87.54
68801;SHT31;55784;50.734;7.086;2023-05-10T20:13:01;14.67;87.04
68801;SHT31;55784;50.734;7.086;2023-05-10T20:15:27;14.65;87.24